X  Fechar Dados meteorológicos de METAR da aviação     EDDK Cologne Bonn Airport
Temperatura
8°C Temperatura
5°C Ponto de orvalho
82% Umidade



Vento
5 MPH
8 KM/H
2 M/S
4 NÓS



170°
S
Condições atuais

Muito nublado Muito nublado
Pressão 1023.03 (hPa) - 30.21 (inHg)
Visibilidade 6 (milha) - 9.7 (km)
Aeroporto
Código do aeroporto EDDK

Localização: Cologne Bonn Airport
Distância: 56 (mi)

Metar:
EDDK 210150Z AUTO 17004KT 9999 BKN023 OVC030 08/05 Q1023 NOSIG

Hora: 2024-02-21 02:50 CET